Time;durP1;ratioP1;P1;durP2;ratioP2;P2;SDS_P1;SDS_P2;PMS_P1;PMS_P2;Temp;Humidity;BMP_temperature;BMP_pressure;BME280_temperature;BME280_humidity;BME280_pressure;Samples;Min_cycle;Max_cycle;Signal;HPM_P1;HPM_P2
2023/01/09 00:01:58;;;;;;;22.70;12.67;;;-0.30;99.90;;;;;;8296222;28;20206;-70
2023/01/09 00:05:59;;;;;;;27.37;15.63;;;-0.40;99.90;;;;;;8295722;28;20190;-69
2023/01/09 00:09:59;;;;;;;26.77;15.27;;;-0.30;99.90;;;;;;8294662;28;20190;-68
2023/01/09 00:14:01;;;;;;;31.03;16.53;;;-0.20;99.90;;;;;;8297489;28;20277;-69
2023/01/09 00:18:01;;;;;;;29.57;16.53;;;-0.10;99.90;;;;;;8291271;28;20195;-66
2023/01/09 00:22:02;;;;;;;33.87;18.87;;;0.00;99.90;;;;;;8292579;28;20225;-67
2023/01/09 00:26:10;;;;;;;32.93;18.27;;;0.10;99.90;;;;;;8296925;28;20191;-66
2023/01/09 00:30:11;;;;;;;34.03;18.93;;;0.20;99.90;;;;;;8289514;28;20478;-68
2023/01/09 00:34:12;;;;;;;34.93;20.00;;;0.40;99.90;;;;;;8291447;28;20639;-67
2023/01/09 00:38:12;;;;;;;30.03;17.40;;;0.50;99.90;;;;;;8287178;28;20282;-70
2023/01/09 00:42:23;;;;;;;36.63;20.40;;;0.50;99.90;;;;;;8291331;28;20478;-67
2023/01/09 00:46:30;;;;;;;38.93;21.33;;;0.60;99.90;;;;;;8295194;28;20190;-67
2023/01/09 00:50:32;;;;;;;42.47;23.67;;;0.70;99.90;;;;;;8290322;28;20222;-70
2023/01/09 00:54:33;;;;;;;39.93;23.03;;;0.70;99.90;;;;;;8294826;28;20233;-67
2023/01/09 00:58:34;;;;;;;65.80;36.67;;;0.80;99.90;;;;;;8291077;28;20195;-67
2023/01/09 01:02:35;;;;;;;143.73;67.47;;;0.80;99.90;;;;;;8292817;28;20202;-67
2023/01/09 01:10:55;;;;;;;125.20;48.83;;;0.80;99.90;;;;;;8291159;28;20505;-68
2023/01/09 01:14:56;;;;;;;46.90;28.33;;;0.80;99.90;;;;;;8290217;28;20187;-67
2023/01/09 01:18:57;;;;;;;46.77;27.10;;;0.70;99.90;;;;;;8296310;28;20206;-67
2023/01/09 01:22:57;;;;;;;51.10;27.80;;;0.60;99.90;;;;;;8293065;28;20195;-67
2023/01/09 01:26:58;;;;;;;47.60;24.80;;;0.50;99.90;;;;;;8289312;28;20274;-68
2023/01/09 01:31:00;;;;;;;36.37;19.30;;;0.40;99.90;;;;;;8293351;28;20182;-68
2023/01/09 01:35:00;;;;;;;30.23;17.60;;;0.30;99.90;;;;;;8291471;28;20214;-67
2023/01/09 01:39:01;;;;;;;37.77;17.93;;;0.20;99.90;;;;;;8293589;28;20198;-67
2023/01/09 01:43:02;;;;;;;45.37;24.60;;;0.20;99.90;;;;;;8288120;28;20182;-67
2023/01/09 01:47:03;;;;;;;40.03;21.93;;;0.30;99.90;;;;;;8293812;28;20534;-67
2023/01/09 01:51:05;;;;;;;57.47;29.57;;;0.40;99.90;;;;;;8288120;28;20191;-68
2023/01/09 01:55:08;;;;;;;58.77;30.43;;;0.50;99.90;;;;;;8292202;28;20187;-68
2023/01/09 01:59:30;;;;;;;51.77;27.57;;;0.50;99.90;;;;;;8293931;28;20234;-68
2023/01/09 02:03:32;;;;;;;50.40;28.17;;;0.60;99.90;;;;;;8291535;28;20181;-68
2023/01/09 02:07:33;;;;;;;44.33;27.00;;;0.60;99.90;;;;;;8290110;28;20187;-68
2023/01/09 02:11:34;;;;;;;40.13;21.90;;;0.50;99.90;;;;;;8281908;28;20253;-68
2023/01/09 02:15:48;;;;;;;36.67;19.63;;;0.50;99.90;;;;;;8292703;28;20441;-67
2023/01/09 02:19:53;;;;;;;34.63;20.43;;;0.50;99.90;;;;;;8288517;28;20209;-67
2023/01/09 02:24:18;;;;;;;39.73;20.77;;;0.60;99.90;;;;;;8292458;28;20190;-67
2023/01/09 02:28:37;;;;;;;71.63;34.73;;;0.60;99.90;;;;;;8287682;28;20195;-67
2023/01/09 02:32:44;;;;;;;50.23;30.47;;;0.60;99.90;;;;;;8296190;28;20183;-67
2023/01/09 02:36:44;;;;;;;44.23;24.67;;;0.60;99.90;;;;;;8287437;28;20226;-68
2023/01/09 02:41:03;;;;;;;50.30;30.67;;;0.50;99.90;;;;;;8299846;28;20249;-67
2023/01/09 02:45:04;;;;;;;49.67;26.40;;;0.50;99.90;;;;;;8292172;28;20183;-67
2023/01/09 02:49:06;;;;;;;44.60;24.57;;;0.40;99.90;;;;;;8294312;28;20183;-68
2023/01/09 02:53:19;;;;;;;37.97;22.43;;;0.40;99.90;;;;;;8302234;28;20217;-68
2023/01/09 02:57:39;;;;;;;37.20;19.87;;;0.30;99.90;;;;;;8302306;28;20187;-67
2023/01/09 03:02:15;;;;;;;34.43;19.27;;;0.20;99.90;;;;;;8302039;28;20210;-67
2023/01/09 03:06:34;;;;;;;34.93;20.53;;;0.10;99.90;;;;;;8304048;28;20189;-68
2023/01/09 03:10:54;;;;;;;34.20;19.23;;;0.10;99.90;;;;;;8300780;28;20274;-68
2023/01/09 03:14:58;;;;;;;36.90;19.90;;;0.00;99.90;;;;;;8304304;28;20191;-68
2023/01/09 03:19:01;;;;;;;35.33;19.23;;;0.00;99.90;;;;;;8302116;28;20233;-67
2023/01/09 03:23:05;;;;;;;40.03;23.63;;;0.00;99.90;;;;;;8303216;28;20182;-68
2023/01/09 03:27:09;;;;;;;40.90;21.47;;;0.10;99.90;;;;;;8303548;28;20183;-68
2023/01/09 03:31:10;;;;;;;33.00;18.83;;;0.10;99.90;;;;;;8303855;28;20183;-68
2023/01/09 03:35:11;;;;;;;31.07;19.47;;;0.10;99.90;;;;;;8303322;28;20213;-69
2023/01/09 03:39:11;;;;;;;28.10;17.30;;;0.10;99.90;;;;;;8301547;28;20206;-68
2023/01/09 03:43:12;;;;;;;27.67;15.53;;;0.10;99.90;;;;;;8301256;28;20289;-70
2023/01/09 03:47:13;;;;;;;29.77;17.47;;;0.00;99.90;;;;;;8301914;28;20304;-68
2023/01/09 03:51:14;;;;;;;41.83;22.73;;;0.10;99.90;;;;;;8299703;28;20199;-69
2023/01/09 03:55:14;;;;;;;36.13;20.37;;;0.10;99.90;;;;;;8302166;28;20191;-68
2023/01/09 03:59:15;;;;;;;31.27;17.90;;;0.10;99.90;;;;;;8296712;28;20211;-68
2023/01/09 04:03:18;;;;;;;29.00;16.57;;;0.10;99.90;;;;;;8299312;28;20186;-68
2023/01/09 04:07:19;;;;;;;31.50;16.57;;;0.10;99.90;;;;;;8297080;28;20210;-68
2023/01/09 04:11:21;;;;;;;25.83;16.33;;;0.10;99.90;;;;;;8295682;28;20196;-68
2023/01/09 04:15:22;;;;;;;27.27;14.97;;;0.00;99.90;;;;;;8298296;28;20196;-68
2023/01/09 04:19:23;;;;;;;23.57;14.40;;;0.00;99.90;;;;;;8312355;28;20291;-69
2023/01/09 04:23:24;;;;;;;25.37;15.07;;;0.00;99.90;;;;;;8296432;28;20194;-69
2023/01/09 04:27:24;;;;;;;25.17;14.40;;;0.00;99.90;;;;;;8299368;28;20442;-68
2023/01/09 04:31:25;;;;;;;26.77;15.40;;;0.00;99.90;;;;;;8292680;28;20190;-69
2023/01/09 04:35:26;;;;;;;23.37;14.53;;;0.10;99.90;;;;;;8295554;28;20219;-68
2023/01/09 04:39:27;;;;;;;26.93;15.43;;;0.20;99.90;;;;;;8299004;28;20250;-71
2023/01/09 04:43:28;;;;;;;32.80;16.83;;;0.20;99.90;;;;;;8296524;28;20402;-68
2023/01/09 04:47:30;;;;;;;26.93;15.63;;;0.40;99.90;;;;;;8295418;28;20198;-69
2023/01/09 04:51:31;;;;;;;22.97;13.87;;;0.40;99.90;;;;;;8297093;28;20233;-71
2023/01/09 04:55:32;;;;;;;34.87;18.80;;;0.50;99.90;;;;;;8292782;28;20191;-69
2023/01/09 04:59:33;;;;;;;64.43;28.33;;;0.60;99.90;;;;;;8294325;28;20222;-69
2023/01/09 05:03:34;;;;;;;52.13;24.20;;;0.70;99.90;;;;;;8292988;28;20254;-68
2023/01/09 05:07:35;;;;;;;27.40;15.40;;;0.90;99.90;;;;;;8291949;28;20584;-68
2023/01/09 05:11:35;;;;;;;25.83;14.70;;;1.00;99.90;;;;;;8294672;28;20214;-68
2023/01/09 05:15:36;;;;;;;26.03;15.80;;;1.00;99.90;;;;;;8290910;28;20277;-68
2023/01/09 05:19:37;;;;;;;25.00;14.50;;;1.10;99.90;;;;;;8296366;28;20219;-67
2023/01/09 05:23:39;;;;;;;24.93;14.73;;;1.20;99.90;;;;;;8297568;28;20186;-67
2023/01/09 05:27:42;;;;;;;23.50;13.80;;;1.30;99.90;;;;;;8297375;28;20186;-67
2023/01/09 05:31:43;;;;;;;25.83;15.57;;;1.40;99.90;;;;;;8294942;28;20193;-67
2023/01/09 05:35:44;;;;;;;43.87;25.20;;;1.50;99.90;;;;;;8294264;28;20218;-67
2023/01/09 05:39:45;;;;;;;34.53;17.53;;;1.60;99.90;;;;;;8292219;28;20222;-66
2023/01/09 05:43:45;;;;;;;42.03;22.20;;;1.70;99.90;;;;;;8291517;28;20191;-67
2023/01/09 05:47:46;;;;;;;40.00;22.77;;;1.70;99.90;;;;;;8292146;28;20194;-67
2023/01/09 05:51:47;;;;;;;32.03;18.33;;;1.80;99.90;;;;;;8290284;28;20193;-66
2023/01/09 05:55:48;;;;;;;27.40;16.57;;;1.90;99.90;;;;;;8295226;28;20240;-66
2023/01/09 05:59:48;;;;;;;27.27;15.53;;;1.90;99.90;;;;;;8281990;28;20318;-66
2023/01/09 06:03:49;;;;;;;28.03;15.43;;;2.00;99.90;;;;;;8293679;28;20198;-65
2023/01/09 06:07:50;;;;;;;29.67;17.47;;;2.10;99.90;;;;;;8285228;28;20189;-65
2023/01/09 06:11:53;;;;;;;24.33;15.77;;;2.20;99.90;;;;;;8292072;28;20230;-66
2023/01/09 06:15:54;;;;;;;28.70;16.73;;;2.30;99.90;;;;;;8292085;28;20193;-67
2023/01/09 06:19:55;;;;;;;42.77;24.27;;;2.40;99.90;;;;;;8292580;28;20313;-66
2023/01/09 06:23:55;;;;;;;34.20;19.47;;;2.50;99.90;;;;;;8295240;28;20191;-66
2023/01/09 06:27:56;;;;;;;125.60;50.57;;;2.60;99.90;;;;;;8296757;28;20192;-66
2023/01/09 06:31:57;;;;;;;113.30;49.53;;;2.60;99.90;;;;;;8298294;28;20223;-68
2023/01/09 06:35:58;;;;;;;87.63;39.57;;;2.70;99.90;;;;;;8295550;28;20215;-66
2023/01/09 06:39:58;;;;;;;68.90;36.17;;;2.70;99.90;;;;;;8302328;28;20238;-66
2023/01/09 06:43:59;;;;;;;64.37;34.47;;;2.70;99.90;;;;;;8297094;28;20260;-66
2023/01/09 06:48:00;;;;;;;61.37;31.43;;;2.70;99.90;;;;;;8291817;28;20303;-66
2023/01/09 06:52:06;;;;;;;55.20;30.17;;;2.70;99.90;;;;;;8296460;28;20284;-66
2023/01/09 06:56:07;;;;;;;65.20;37.97;;;2.70;99.90;;;;;;8303109;28;20200;-66
2023/01/09 07:00:08;;;;;;;50.50;28.30;;;2.60;99.90;;;;;;8303178;28;20210;-66
2023/01/09 07:04:09;;;;;;;52.53;30.13;;;2.30;99.90;;;;;;8299082;28;20275;-70
2023/01/09 07:08:10;;;;;;;63.73;32.27;;;2.30;99.90;;;;;;8293141;28;20195;-70
2023/01/09 07:12:11;;;;;;;58.13;32.97;;;2.40;99.90;;;;;;8292689;28;20281;-70
2023/01/09 07:16:12;;;;;;;106.93;53.37;;;2.40;99.90;;;;;;8297817;28;20198;-70
2023/01/09 07:20:13;;;;;;;103.70;53.33;;;2.60;99.90;;;;;;8290216;28;20206;-70
2023/01/09 07:24:14;;;;;;;84.17;48.27;;;2.70;99.90;;;;;;8295952;28;20200;-70
2023/01/09 07:28:14;;;;;;;71.33;40.77;;;2.70;99.90;;;;;;8291863;28;20239;-72
2023/01/09 07:32:16;;;;;;;50.40;30.10;;;2.70;99.90;;;;;;8296667;28;20265;-71
2023/01/09 07:36:16;;;;;;;60.87;35.97;;;2.60;99.90;;;;;;8297103;28;20206;-71
2023/01/09 07:40:17;;;;;;;57.10;34.93;;;2.60;99.90;;;;;;8293667;28;20309;-72
2023/01/09 07:44:18;;;;;;;62.13;37.60;;;2.60;99.90;;;;;;8295004;28;20191;-71
2023/01/09 07:48:19;;;;;;;57.40;36.03;;;2.70;99.90;;;;;;8291168;28;20203;-69
2023/01/09 07:52:20;;;;;;;54.43;34.97;;;2.70;99.90;;;;;;8296986;28;20293;-72
2023/01/09 07:56:21;;;;;;;67.77;41.20;;;2.80;99.90;;;;;;8294925;28;20202;-70
2023/01/09 08:00:21;;;;;;;77.43;47.37;;;2.90;99.90;;;;;;8298053;28;20320;-71
2023/01/09 08:04:22;;;;;;;79.73;45.27;;;2.90;99.90;;;;;;8292010;28;20191;-67
2023/01/09 08:08:23;;;;;;;67.00;41.13;;;3.00;99.90;;;;;;8292063;28;20245;-67
2023/01/09 08:12:24;;;;;;;65.27;40.03;;;3.00;99.90;;;;;;8295434;28;20190;-70
2023/01/09 08:16:25;;;;;;;83.93;50.23;;;3.00;99.90;;;;;;8289515;28;20193;-71
2023/01/09 08:20:26;;;;;;;97.80;58.07;;;3.10;99.90;;;;;;8293935;28;20218;-71
2023/01/09 08:24:27;;;;;;;107.27;60.73;;;3.20;99.90;;;;;;8296204;28;20197;-70
2023/01/09 08:28:28;;;;;;;68.40;41.83;;;3.20;99.90;;;;;;8294824;28;20281;-69
2023/01/09 08:32:28;;;;;;;56.27;33.93;;;3.20;99.90;;;;;;8297820;28;20208;-70
2023/01/09 08:36:29;;;;;;;46.27;29.10;;;3.20;99.90;;;;;;8290634;28;20215;-69
2023/01/09 08:40:30;;;;;;;42.53;26.73;;;3.30;99.90;;;;;;8293777;28;20376;-69
2023/01/09 08:48:50;;;;;;;30.33;19.67;;;3.50;99.90;;;;;;8295525;28;20294;-69
2023/01/09 08:52:50;;;;;;;28.37;16.93;;;3.60;99.90;;;;;;8298502;28;20204;-70
2023/01/09 08:56:51;;;;;;;24.80;16.87;;;3.70;99.90;;;;;;8293016;28;20178;-68
2023/01/09 09:00:52;;;;;;;22.67;15.17;;;3.80;99.90;;;;;;8285869;28;20234;-68
2023/01/09 09:04:54;;;;;;;24.13;14.23;;;4.00;99.90;;;;;;8297168;28;20297;-68
2023/01/09 09:08:55;;;;;;;21.70;13.97;;;4.20;99.90;;;;;;8290369;28;20275;-68
2023/01/09 09:12:58;;;;;;;24.47;15.30;;;4.40;99.90;;;;;;8293950;28;20198;-69
2023/01/09 09:16:58;;;;;;;40.03;24.20;;;4.50;99.90;;;;;;8289622;28;20220;-68
2023/01/09 09:20:59;;;;;;;58.90;33.23;;;4.60;99.90;;;;;;8290536;28;20218;-68
2023/01/09 09:25:01;;;;;;;52.03;32.27;;;4.60;99.90;;;;;;8290621;28;20237;-68
2023/01/09 09:29:02;;;;;;;58.90;37.80;;;4.60;99.90;;;;;;8290938;28;20207;-69
2023/01/09 09:33:03;;;;;;;44.87;28.93;;;4.50;99.90;;;;;;8290933;28;20182;-69
2023/01/09 09:37:04;;;;;;;65.90;41.47;;;4.50;99.90;;;;;;8291997;28;20218;-68
2023/01/09 09:44:41;;;;;;;62.53;40.27;;;4.60;99.90;;;;;;8290953;28;20217;-70
2023/01/09 09:45:41;;;;;;;71.80;46.63;;;4.70;99.90;;;;;;8295241;28;20205;-69
2023/01/09 09:49:47;;;;;;;80.30;50.80;;;4.80;99.90;;;;;;8294798;28;20194;-70
2023/01/09 09:54:02;;;;;;;83.83;56.13;;;4.80;99.90;;;;;;8291559;28;20275;-70
2023/01/09 09:58:20;;;;;;;110.83;66.27;;;4.90;99.90;;;;;;8314947;28;20230;-70
2023/01/09 10:02:26;;;;;;;135.17;80.73;;;4.90;99.90;;;;;;8292073;28;20238;-70
2023/01/09 10:06:33;;;;;;;120.00;76.47;;;5.00;99.90;;;;;;8281442;28;20191;-68
2023/01/09 10:10:43;;;;;;;141.80;88.30;;;5.10;99.90;;;;;;8274661;28;20229;-70
2023/01/09 10:14:44;;;;;;;150.40;95.47;;;5.20;99.90;;;;;;8286946;28;20230;-70
2023/01/09 10:19:18;;;;;;;188.40;122.20;;;5.30;99.90;;;;;;8276887;28;20261;-70
2023/01/09 10:23:52;;;;;;;224.93;134.00;;;5.30;99.90;;;;;;8286347;28;20234;-71
2023/01/09 10:28:24;;;;;;;192.60;120.90;;;5.40;99.90;;;;;;8291193;28;20195;-70
2023/01/09 10:32:43;;;;;;;198.67;125.17;;;5.40;99.90;;;;;;8291460;28;20190;-71
2023/01/09 10:37:10;;;;;;;189.40;121.07;;;5.50;99.90;;;;;;8284999;28;20343;-69
2023/01/09 10:41:22;;;;;;;178.27;117.57;;;5.70;99.90;;;;;;8285146;28;20225;-71
2023/01/09 10:45:32;;;;;;;180.30;112.40;;;6.00;99.90;;;;;;8323547;28;20272;-70
2023/01/09 10:49:35;;;;;;;185.60;114.23;;;6.20;99.90;;;;;;8318302;28;20187;-70
2023/01/09 10:53:41;;;;;;;113.90;70.97;;;6.40;99.90;;;;;;8321746;28;20186;-71
2023/01/09 10:57:45;;;;;;;77.83;51.97;;;6.70;99.90;;;;;;8321486;28;20186;-70
2023/01/09 11:01:45;;;;;;;57.57;39.43;;;7.00;99.90;;;;;;8322512;28;20526;-69
2023/01/09 11:05:51;;;;;;;26.67;19.47;;;7.40;99.90;;;;;;8319002;28;20186;-70
2023/01/09 11:09:57;;;;;;;20.97;14.40;;;7.70;99.90;;;;;;8336174;28;20199;-70
2023/01/09 11:14:26;;;;;;;16.60;11.57;;;7.90;99.90;;;;;;8324745;28;20200;-70
2023/01/09 11:18:27;;;;;;;16.00;11.43;;;7.90;99.90;;;;;;8324687;28;20289;-71
2023/01/09 11:22:28;;;;;;;17.90;11.90;;;8.00;99.90;;;;;;8333846;28;20206;-70
2023/01/09 11:26:29;;;;;;;16.10;11.30;;;8.00;99.90;;;;;;8325107;28;20193;-70
2023/01/09 11:30:33;;;;;;;16.93;10.77;;;7.90;99.90;;;;;;8333990;28;20193;-71
2023/01/09 11:34:35;;;;;;;13.80;10.20;;;7.80;99.90;;;;;;8327199;28;20210;-70
2023/01/09 11:38:54;;;;;;;16.80;10.47;;;7.70;99.90;;;;;;8309983;28;20224;-69
2023/01/09 11:43:34;;;;;;;13.67;9.93;;;7.70;99.90;;;;;;8315553;28;20233;-69
2023/01/09 11:47:39;;;;;;;14.37;10.00;;;7.70;99.90;;;;;;8333205;28;20300;-69
2023/01/09 11:51:41;;;;;;;12.67;9.43;;;7.70;99.90;;;;;;8334019;28;20280;-69
2023/01/09 11:55:43;;;;;;;13.43;9.80;;;7.70;99.90;;;;;;8333142;28;20209;-68
2023/01/09 11:59:44;;;;;;;13.10;9.00;;;7.70;99.90;;;;;;8325847;28;20222;-68
2023/01/09 12:04:15;;;;;;;11.87;7.90;;;7.90;99.90;;;;;;8335805;28;20185;-69
2023/01/09 12:08:25;;;;;;;10.93;8.10;;;8.00;99.90;;;;;;8335130;28;20190;-69
2023/01/09 12:12:47;;;;;;;12.77;7.93;;;8.10;99.90;;;;;;8342234;28;20278;-68
2023/01/09 12:16:54;;;;;;;11.00;7.53;;;8.10;99.90;;;;;;8334334;28;20193;-68
2023/01/09 12:21:23;;;;;;;10.27;8.10;;;8.20;99.90;;;;;;8291331;28;20230;-68
2023/01/09 12:25:28;;;;;;;10.43;8.10;;;8.20;99.90;;;;;;8294576;28;20214;-69
2023/01/09 12:29:36;;;;;;;9.57;6.87;;;8.20;99.90;;;;;;8292850;28;20210;-70
2023/01/09 12:33:51;;;;;;;9.17;6.87;;;8.20;99.90;;;;;;8321310;28;20202;-73
2023/01/09 12:37:58;;;;;;;10.53;6.87;;;8.20;99.90;;;;;;8328777;28;20198;-71
2023/01/09 12:42:06;;;;;;;10.23;7.70;;;8.20;99.90;;;;;;8323142;28;20214;-71
2023/01/09 12:46:41;;;;;;;9.50;7.53;;;8.20;99.90;;;;;;8320901;28;20179;-72
2023/01/09 12:50:47;;;;;;;10.53;7.47;;;8.20;99.90;;;;;;8330624;28;20196;-70
2023/01/09 12:54:52;;;;;;;8.47;6.77;;;8.30;99.90;;;;;;8318933;28;21341;-69
2023/01/09 12:59:17;;;;;;;9.63;6.83;;;8.30;99.90;;;;;;8324277;28;20351;-68
2023/01/09 13:03:44;;;;;;;9.43;6.60;;;8.30;99.90;;;;;;8334445;28;20264;-68
2023/01/09 13:07:59;;;;;;;9.60;6.37;;;8.30;99.90;;;;;;8315910;28;20336;-69
2023/01/09 13:12:22;;;;;;;8.27;6.23;;;8.30;99.90;;;;;;8334897;28;20193;-68
2023/01/09 13:16:40;;;;;;;9.63;6.40;;;8.30;99.90;;;;;;8326723;28;20189;-68
2023/01/09 13:20:53;;;;;;;9.27;6.33;;;8.30;99.90;;;;;;8326293;28;20411;-69
2023/01/09 13:25:17;;;;;;;7.57;5.93;;;8.20;99.90;;;;;;8328250;28;20182;-69
2023/01/09 13:29:21;;;;;;;9.20;7.00;;;8.20;99.90;;;;;;8308706;28;20222;-69
2023/01/09 13:33:29;;;;;;;11.97;6.60;;;8.20;99.90;;;;;;8324327;28;20255;-68
2023/01/09 13:37:34;;;;;;;11.07;7.23;;;8.10;99.90;;;;;;8324133;28;20289;-69
2023/01/09 13:46:54;;;;;;;10.37;7.77;;;8.10;99.90;;;;;;8300274;28;20384;-68
2023/01/09 13:51:33;;;;;;;11.17;8.57;;;8.10;99.90;;;;;;8316718;28;20202;-70
2023/01/09 13:55:34;;;;;;;11.93;8.37;;;8.00;99.90;;;;;;8331697;28;20185;-68
2023/01/09 13:59:35;;;;;;;10.47;8.07;;;8.00;99.90;;;;;;8331440;28;20206;-69
2023/01/09 14:03:37;;;;;;;11.57;7.77;;;8.00;99.90;;;;;;8336236;28;20212;-69
2023/01/09 14:07:47;;;;;;;12.03;7.97;;;8.00;99.90;;;;;;8331027;28;20222;-70
2023/01/09 14:12:04;;;;;;;11.07;8.27;;;8.00;99.90;;;;;;8334051;28;20375;-68
2023/01/09 14:16:10;;;;;;;10.47;7.83;;;7.90;99.90;;;;;;8334170;28;20193;-69
2023/01/09 14:20:28;;;;;;;10.17;8.23;;;7.90;99.90;;;;;;8332645;28;20305;-68
2023/01/09 14:24:51;;;;;;;10.70;7.90;;;7.80;99.90;;;;;;8326992;28;20194;-69
2023/01/09 14:29:28;;;;;;;9.73;7.20;;;7.70;99.90;;;;;;8322521;28;20308;-70
2023/01/09 14:33:31;;;;;;;10.93;7.37;;;7.60;99.90;;;;;;8329505;28;20186;-70
2023/01/09 14:37:33;;;;;;;9.40;7.10;;;7.50;99.90;;;;;;8324587;28;20308;-69
2023/01/09 14:46:10;;;;;;;11.30;7.77;;;7.50;99.90;;;;;;8299005;28;20233;-69
2023/01/09 14:50:16;;;;;;;11.23;7.90;;;7.30;99.90;;;;;;8293915;28;20253;-70
2023/01/09 14:54:33;;;;;;;10.73;7.73;;;7.20;99.90;;;;;;8303950;28;20336;-70
2023/01/09 14:58:36;;;;;;;15.30;8.93;;;7.10;99.90;;;;;;8306558;28;20238;-70
2023/01/09 15:02:38;;;;;;;11.23;8.20;;;6.90;99.90;;;;;;8319414;28;20242;-70
2023/01/09 15:06:55;;;;;;;9.83;7.57;;;6.80;99.90;;;;;;8331372;28;20185;-69
2023/01/09 15:10:58;;;;;;;11.60;8.77;;;6.70;99.90;;;;;;8320429;28;20190;-70
2023/01/09 15:15:01;;;;;;;12.17;8.57;;;6.70;99.90;;;;;;8331495;28;20190;-69
2023/01/09 15:19:06;;;;;;;12.00;8.67;;;6.60;99.90;;;;;;8333861;28;20232;-69
2023/01/09 15:23:24;;;;;;;13.80;9.00;;;6.50;99.90;;;;;;8331318;28;20190;-69
2023/01/09 15:27:25;;;;;;;13.77;8.57;;;6.40;99.90;;;;;;8337313;28;20194;-70
2023/01/09 15:31:26;;;;;;;11.93;8.43;;;6.30;99.90;;;;;;8330822;28;20194;-69
2023/01/09 15:35:28;;;;;;;12.87;9.33;;;6.20;99.90;;;;;;8337137;28;20214;-68
2023/01/09 15:39:36;;;;;;;14.67;8.03;;;6.10;99.90;;;;;;8330441;28;20264;-68
2023/01/09 15:43:43;;;;;;;11.67;8.17;;;6.00;99.90;;;;;;8335991;28;20193;-67
2023/01/09 15:47:43;;;;;;;13.03;8.73;;;5.90;99.90;;;;;;8329982;28;20193;-67
2023/01/09 15:51:47;;;;;;;12.20;8.50;;;5.70;99.90;;;;;;8325410;28;20584;-67
2023/01/09 15:56:05;;;;;;;12.83;8.47;;;5.60;99.90;;;;;;8332182;28;20283;-67
2023/01/09 16:00:40;;;;;;;10.87;8.30;;;5.40;99.90;;;;;;8328668;28;20300;-66
2023/01/09 16:04:41;;;;;;;11.80;8.03;;;5.30;99.90;;;;;;8324558;28;20194;-67
2023/01/09 16:08:50;;;;;;;11.37;7.40;;;5.20;99.90;;;;;;8330737;28;20190;-68
2023/01/09 16:12:53;;;;;;;10.43;7.10;;;5.10;99.90;;;;;;8330891;28;20186;-66
2023/01/09 16:16:59;;;;;;;11.03;7.47;;;5.00;99.90;;;;;;8338974;28;20193;-69
2023/01/09 16:21:02;;;;;;;9.30;6.50;;;4.90;99.90;;;;;;8331384;28;20235;-68
2023/01/09 16:25:23;;;;;;;11.00;7.03;;;4.80;99.90;;;;;;8333279;28;20189;-68
2023/01/09 16:29:35;;;;;;;9.80;6.80;;;4.70;99.90;;;;;;8312960;28;20231;-67
2023/01/09 16:33:44;;;;;;;10.70;7.23;;;4.70;99.90;;;;;;8327963;28;20273;-67
2023/01/09 16:37:45;;;;;;;11.47;7.87;;;4.70;99.90;;;;;;8328679;28;20205;-66
2023/01/09 16:46:06;;;;;;;14.30;9.53;;;4.60;99.90;;;;;;8329519;28;20192;-63
2023/01/09 16:50:10;;;;;;;14.03;9.70;;;4.60;99.90;;;;;;8319458;28;20190;-67
2023/01/09 16:54:11;;;;;;;14.90;8.67;;;4.60;99.90;;;;;;8326239;28;20194;-68
2023/01/09 16:58:23;;;;;;;14.60;9.20;;;4.50;99.90;;;;;;8325493;28;20247;-69
2023/01/09 17:02:24;;;;;;;15.97;9.53;;;4.50;99.90;;;;;;8332977;28;20217;-69
2023/01/09 17:06:31;;;;;;;14.20;10.13;;;4.50;99.90;;;;;;8330275;28;20182;-69
2023/01/09 17:10:32;;;;;;;17.87;10.43;;;4.60;99.90;;;;;;8330037;28;20241;-69
2023/01/09 17:14:32;;;;;;;15.87;11.00;;;4.60;99.90;;;;;;8334676;28;20191;-69
2023/01/09 17:18:33;;;;;;;15.43;9.97;;;4.60;99.90;;;;;;8322769;28;20194;-69
2023/01/09 17:22:34;;;;;;;15.50;10.37;;;4.60;99.90;;;;;;8319979;28;20214;-69
2023/01/09 17:30:57;;;;;;;18.03;9.93;;;4.50;99.90;;;;;;8326714;28;20216;-69
2023/01/09 17:34:58;;;;;;;15.17;9.97;;;4.40;99.90;;;;;;8326892;28;20210;-68
2023/01/09 17:38:59;;;;;;;15.90;10.70;;;4.30;99.90;;;;;;8324891;28;20228;-68
2023/01/09 17:43:00;;;;;;;19.23;11.80;;;4.30;99.90;;;;;;8327880;28;20210;-68
2023/01/09 17:47:03;;;;;;;17.80;11.83;;;4.20;99.90;;;;;;8321273;28;20209;-68
2023/01/09 17:51:04;;;;;;;19.23;11.97;;;4.20;99.90;;;;;;8324782;28;20187;-69
2023/01/09 17:55:05;;;;;;;20.40;12.70;;;4.30;99.90;;;;;;8328113;28;20190;-68
2023/01/09 17:59:08;;;;;;;20.63;13.40;;;4.40;99.90;;;;;;8333302;28;20248;-69
2023/01/09 18:03:09;;;;;;;22.17;14.67;;;4.30;99.90;;;;;;8329775;28;20195;-69
2023/01/09 18:07:19;;;;;;;23.70;14.87;;;4.30;99.90;;;;;;8315972;28;20197;-68
2023/01/09 18:11:21;;;;;;;24.10;14.40;;;4.10;99.90;;;;;;8308601;28;20749;-69
2023/01/09 18:15:23;;;;;;;21.50;13.77;;;4.00;99.90;;;;;;8315113;28;20186;-69
2023/01/09 18:19:24;;;;;;;25.50;13.80;;;3.90;99.90;;;;;;8308800;28;20186;-69
2023/01/09 18:23:25;;;;;;;20.40;13.37;;;3.80;99.90;;;;;;8306472;28;20194;-68
2023/01/09 18:27:26;;;;;;;23.10;15.30;;;3.70;99.90;;;;;;8313550;28;20182;-69
2023/01/09 18:31:28;;;;;;;23.70;15.00;;;3.70;99.90;;;;;;8315075;28;20186;-69
2023/01/09 18:35:32;;;;;;;25.77;15.50;;;3.60;99.90;;;;;;8319097;28;20202;-70
2023/01/09 18:39:32;;;;;;;28.20;15.87;;;3.60;99.90;;;;;;8320072;28;20224;-69
2023/01/09 18:43:33;;;;;;;25.90;15.63;;;3.70;99.90;;;;;;8319812;28;20499;-69
2023/01/09 18:47:34;;;;;;;25.80;15.83;;;3.70;99.90;;;;;;8318456;28;20179;-69
2023/01/09 18:51:35;;;;;;;25.17;15.30;;;3.70;99.90;;;;;;8319665;28;20209;-68
2023/01/09 18:55:37;;;;;;;23.27;14.50;;;3.70;99.90;;;;;;8319890;28;20186;-67
2023/01/09 18:59:37;;;;;;;26.40;15.00;;;3.60;99.90;;;;;;8331908;28;20202;-70
2023/01/09 19:03:38;;;;;;;21.70;15.33;;;3.50;99.90;;;;;;8329299;28;20197;-67
2023/01/09 19:07:39;;;;;;;26.00;14.63;;;3.50;99.90;;;;;;8334554;28;20200;-68
2023/01/09 19:11:43;;;;;;;22.97;14.30;;;3.50;99.90;;;;;;8333108;28;20319;-69
2023/01/09 19:15:44;;;;;;;24.37;15.70;;;3.60;99.90;;;;;;8329855;28;20438;-67
2023/01/09 19:19:45;;;;;;;25.07;15.93;;;3.80;99.90;;;;;;8329722;28;20209;-68
2023/01/09 19:23:46;;;;;;;23.37;14.80;;;4.00;99.90;;;;;;8327523;28;21545;-68
2023/01/09 19:27:47;;;;;;;25.83;15.73;;;4.10;99.90;;;;;;8331808;28;20224;-68
2023/01/09 19:31:48;;;;;;;22.27;14.67;;;4.30;99.90;;;;;;8324036;28;20397;-69
2023/01/09 19:35:50;;;;;;;23.77;14.37;;;4.40;99.90;;;;;;8326362;28;20214;-67
2023/01/09 19:39:51;;;;;;;21.60;12.90;;;4.50;99.90;;;;;;8317489;28;20217;-67
2023/01/09 19:43:52;;;;;;;22.60;13.10;;;4.50;99.90;;;;;;8328971;28;20244;-67
2023/01/09 19:47:53;;;;;;;18.67;12.10;;;4.30;99.90;;;;;;8326865;28;20182;-67
2023/01/09 19:51:54;;;;;;;20.70;13.60;;;4.10;99.90;;;;;;8328237;28;20194;-66
2023/01/09 19:56:10;;;;;;;22.83;12.90;;;3.90;99.90;;;;;;8327682;28;20192;-67
2023/01/09 20:00:13;;;;;;;24.13;13.03;;;3.80;99.90;;;;;;8332513;28;20218;-67
2023/01/09 20:04:16;;;;;;;18.77;11.43;;;3.70;99.90;;;;;;8332905;28;20193;-67
2023/01/09 20:08:17;;;;;;;17.77;11.47;;;3.60;99.90;;;;;;8336428;28;20196;-67
2023/01/09 20:12:18;;;;;;;18.80;11.47;;;3.50;99.90;;;;;;8334497;28;20281;-67
2023/01/09 20:16:22;;;;;;;21.47;11.07;;;3.50;99.90;;;;;;8329147;28;20186;-67
2023/01/09 20:20:22;;;;;;;18.03;10.50;;;3.50;99.90;;;;;;8328083;28;20200;-67
2023/01/09 20:24:23;;;;;;;18.23;11.83;;;3.50;99.90;;;;;;8330545;28;20191;-68
2023/01/09 20:28:25;;;;;;;18.70;11.10;;;3.50;99.90;;;;;;8326029;28;20216;-67
2023/01/09 20:32:28;;;;;;;17.67;10.97;;;3.50;99.90;;;;;;8328478;28;20184;-68
2023/01/09 20:36:30;;;;;;;16.60;10.40;;;3.60;99.90;;;;;;8326323;28;20212;-72
2023/01/09 20:40:33;;;;;;;16.83;10.60;;;3.70;99.90;;;;;;8329630;28;20210;-67
2023/01/09 20:44:34;;;;;;;19.33;11.63;;;3.90;99.90;;;;;;8325696;28;20578;-68
2023/01/09 20:48:35;;;;;;;21.20;11.57;;;4.10;99.90;;;;;;8324801;28;21911;-67
2023/01/09 20:52:36;;;;;;;21.07;11.47;;;4.30;99.90;;;;;;8327987;28;20186;-68
2023/01/09 20:56:36;;;;;;;20.30;12.27;;;4.40;99.90;;;;;;8330798;28;20182;-68
2023/01/09 21:00:37;;;;;;;21.27;12.67;;;4.50;99.90;;;;;;8325474;28;20213;-67
2023/01/09 21:04:38;;;;;;;18.50;11.37;;;4.60;99.90;;;;;;8330033;28;20236;-68
2023/01/09 21:08:43;;;;;;;20.77;11.77;;;4.70;99.90;;;;;;8333938;28;20178;-69
2023/01/09 21:12:44;;;;;;;16.03;10.97;;;4.70;99.90;;;;;;8326670;28;20520;-66
2023/01/09 21:16:48;;;;;;;16.87;11.53;;;4.70;99.90;;;;;;8329226;28;20612;-67
2023/01/09 21:20:49;;;;;;;17.60;11.40;;;4.60;99.90;;;;;;8323657;28;20225;-69
2023/01/09 21:24:50;;;;;;;17.33;11.17;;;4.50;99.90;;;;;;8330276;28;20202;-70
2023/01/09 21:28:54;;;;;;;16.90;10.73;;;4.30;99.90;;;;;;8322119;28;20182;-69